createdAt,value
2022-09-30T00:00:22.152Z,99393.95
2022-09-30T00:01:28.779Z,99388.55
2022-09-30T00:02:34.024Z,99388.55
2022-09-30T00:03:44.569Z,99385.63
2022-09-30T00:04:43.518Z,99385.63
2022-09-30T00:05:55.719Z,99390.02
2022-09-30T00:06:57.569Z,99390.66
2022-09-30T00:08:04.582Z,99390.27
2022-09-30T00:09:08.606Z,99386.52
2022-09-30T00:10:12.566Z,99386.52
2022-09-30T00:11:21.076Z,99396.28
2022-09-30T00:12:26.494Z,99395.91
2022-09-30T00:13:31.910Z,99389.45
2022-09-30T00:14:35.749Z,99390.28
2022-09-30T00:15:39.605Z,99390.28
2022-09-30T00:16:45.455Z,99391.76
2022-09-30T00:17:49.415Z,99394.27
2022-09-30T00:18:55.851Z,99391.76
2022-09-30T00:20:01.483Z,99391.76
2022-09-30T00:21:06.085Z,99384.28
2022-09-30T00:22:11.563Z,99387.63
2022-09-30T00:23:15.484Z,99382.84
2022-09-30T00:24:21.601Z,99378.47
2022-09-30T00:25:33.129Z,99380.12
2022-09-30T00:26:41.584Z,99386.18
2022-09-30T00:27:45.484Z,99388.89
2022-09-30T00:28:56.451Z,99386.18
2022-09-30T00:30:07.499Z,99386.18
2022-09-30T01:01:44.591Z,99406.34
2022-09-30T01:02:49.841Z,99415.93
2022-09-30T01:03:56.707Z,99410.73
2022-09-30T01:05:09.188Z,99410.73
2022-09-30T01:06:14.759Z,99410.52
2022-09-30T01:07:20.295Z,99413.23
2022-09-30T01:08:25.082Z,99415.74
2022-09-30T01:09:31.360Z,99420.32
2022-09-30T01:10:40.370Z,99409.50
2022-09-30T01:11:41.191Z,99410.34
2022-09-30T01:12:47.160Z,99409.50
2022-09-30T01:13:56.479Z,99409.50
2022-09-30T01:15:03.006Z,99425.73
2022-09-30T01:16:24.777Z,99425.73
2022-09-30T01:17:37.821Z,99425.73
2022-09-30T01:18:58.092Z,99428.63
2022-09-30T01:20:26.986Z,99428.63
2022-09-30T01:21:39.541Z,99413.63
2022-09-30T01:22:49.280Z,99415.69
2022-09-30T01:24:14.353Z,99415.69
2022-09-30T01:25:35.939Z,99420.45
2022-09-30T01:26:57.693Z,99425.25
2022-09-30T01:28:10.126Z,99416.31
2022-09-30T01:29:27.656Z,99416.31
2022-09-30T01:30:58.629Z,99424.61
2022-09-30T01:32:24.940Z,99416.50
2022-09-30T01:33:51.042Z,99416.50
2022-09-30T01:34:59.600Z,99421.91
2022-09-30T01:36:38.507Z,99421.91
2022-09-30T01:38:04.239Z,99419.38
2022-09-30T01:39:31.792Z,99422.09
2022-09-30T01:40:44.234Z,99422.30
2022-09-30T01:41:54.788Z,99423.31
2022-09-30T01:43:03.342Z,99423.31
2022-09-30T01:44:13.063Z,99425.19
2022-09-30T01:45:33.269Z,99426.88
2022-09-30T01:46:40.299Z,99425.19
2022-09-30T01:47:54.345Z,99425.19
2022-09-30T01:49:07.037Z,99437.88
2022-09-30T01:50:19.670Z,99425.41
2022-09-30T01:51:32.161Z,99425.41
2022-09-30T01:52:50.978Z,99428.94
2022-09-30T01:54:13.087Z,99428.94
2022-09-30T01:56:48.229Z,99426.42
2022-09-30T02:00:14.725Z,99425.81
2022-09-30T02:18:22.791Z,99415.36
2022-09-30T02:19:49.408Z,99413.48
2022-09-30T02:21:01.773Z,99420.55
2022-09-30T02:22:20.699Z,99420.55
2022-09-30T02:23:38.034Z,99422.42
2022-09-30T02:24:49.116Z,99425.95
2022-09-30T02:25:57.878Z,99425.95
2022-09-30T02:27:04.892Z,99429.48
2022-09-30T02:28:13.254Z,99429.48
2022-09-30T02:29:20.172Z,99418.67
2022-09-30T02:45:18.060Z,99422.31
2022-09-30T02:46:30.928Z,99420.27
2022-09-30T02:47:55.510Z,99420.27
2022-09-30T02:49:09.335Z,99427.14
2022-09-30T02:50:18.062Z,99259.29
2022-09-30T02:51:34.096Z,99426.16
2022-09-30T02:53:06.445Z,99426.16
2022-09-30T02:54:19.319Z,99425.95
2022-09-30T02:55:33.579Z,99417.66
2022-09-30T02:56:52.102Z,99417.66
2022-09-30T02:58:08.139Z,99421.37
2022-09-30T02:59:13.753Z,99425.77
2022-09-30T03:00:17.994Z,99431.17
2022-09-30T03:01:23.555Z,99431.17
2022-09-30T03:02:28.503Z,99432.00
2022-09-30T03:03:35.395Z,99434.48
2022-09-30T03:04:46.089Z,99434.48
2022-09-30T03:05:51.180Z,99320.56
2022-09-30T03:06:57.010Z,99430.13
2022-09-30T03:08:04.158Z,99442.59
2022-09-30T03:09:10.956Z,99436.18
2022-09-30T03:10:19.120Z,99441.58
2022-09-30T03:13:09.425Z,99448.65
2022-09-30T03:14:23.606Z,99443.24
2022-09-30T03:16:04.817Z,99441.58
2022-09-30T03:17:35.594Z,99441.98
2022-09-30T03:18:42.527Z,99445.69
2022-09-30T03:20:12.340Z,99444.03
2022-09-30T03:21:39.621Z,99435.25
2022-09-30T03:23:10.375Z,99443.56
2022-09-30T03:24:45.446Z,99443.56
2022-09-30T03:42:24.586Z,99451.09
2022-09-30T03:43:50.835Z,99456.88
2022-09-30T03:45:13.513Z,99455.00
2022-09-30T03:46:45.224Z,99455.00
2022-09-30T03:52:24.714Z,99459.84
2022-09-30T03:53:37.739Z,99453.61
2022-09-30T03:55:19.841Z,99457.14
2022-09-30T03:57:47.147Z,99458.83
2022-09-30T03:59:06.946Z,99464.02
2022-09-30T04:00:05.364Z,99467.55
2022-09-30T04:01:15.524Z,99461.14
2022-09-30T04:02:20.763Z,99466.55
2022-09-30T04:03:25.069Z,99471.94
2022-09-30T04:04:45.578Z,99474.82
2022-09-30T04:05:55.391Z,99477.34
2022-09-30T04:07:09.837Z,99477.34
2022-09-30T04:09:11.165Z,99479.00
2022-09-30T04:09:33.180Z,99477.34
2022-09-30T04:10:35.945Z,99482.92
2022-09-30T04:11:52.133Z,99483.13
2022-09-30T04:12:55.440Z,99479.39
2022-09-30T04:14:23.615Z,99479.39
2022-09-30T04:15:53.402Z,99484.35
2022-09-30T04:16:40.673Z,99482.66
2022-09-30T04:19:34.712Z,99492.63
2022-09-30T05:03:55.140Z,99530.25
2022-09-30T05:34:43.086Z,99553.91
2022-09-30T05:41:24.686Z,99560.86
2022-09-30T05:43:55.279Z,99554.64
2022-09-30T05:44:59.141Z,99549.71
2022-09-30T05:46:06.651Z,99553.67
2022-09-30T05:47:10.499Z,99550.56
2022-09-30T05:48:14.338Z,99551.84
2022-09-30T05:49:18.334Z,99551.22
2022-09-30T05:50:23.994Z,99553.55
2022-09-30T05:51:29.505Z,99548.56
2022-09-30T05:52:34.931Z,99550.45
2022-09-30T05:53:39.819Z,99558.16
2022-09-30T05:54:43.691Z,99552.34
2022-09-30T05:55:48.845Z,99551.96
2022-09-30T05:56:54.368Z,99551.55
2022-09-30T05:57:58.286Z,99555.31
2022-09-30T05:59:35.631Z,99556.56
2022-09-30T06:00:12.381Z,99552.61
2022-09-30T06:01:16.722Z,99552.20
2022-09-30T06:02:26.122Z,99572.45
2022-09-30T06:03:27.892Z,99561.39
2022-09-30T06:04:33.417Z,99567.45
2022-09-30T06:05:37.706Z,99568.27
2022-09-30T06:06:43.229Z,99568.27
2022-09-30T06:07:48.715Z,99577.04
2022-09-30T06:08:52.675Z,99577.04
2022-09-30T06:09:56.525Z,99577.88
2022-09-30T06:11:01.804Z,99575.38
2022-09-30T06:12:07.668Z,99578.09
2022-09-30T06:21:27.193Z,99592.28
2022-09-30T06:22:36.884Z,99589.95
2022-09-30T06:23:41.933Z,99593.72
2022-09-30T06:24:49.432Z,99590.59
2022-09-30T06:26:26.540Z,99596.23
2022-09-30T06:27:09.895Z,99596.02
2022-09-30T06:28:36.790Z,99596.02
2022-09-30T06:29:26.798Z,99596.65
2022-09-30T06:30:35.446Z,99598.53
2022-09-30T06:31:48.163Z,99600.00
2022-09-30T06:32:51.101Z,99595.19
2022-09-30T06:33:54.861Z,99602.08
2022-09-30T06:35:00.893Z,99607.08
2022-09-30T06:36:05.882Z,99610.44
2022-09-30T06:37:18.872Z,99610.44
2022-09-30T06:38:26.687Z,99615.89
2022-09-30T06:39:30.929Z,99612.77
2022-09-30T06:40:37.224Z,99612.77
2022-09-30T06:41:44.474Z,99620.48
2022-09-30T06:42:55.130Z,99619.66
2022-09-30T06:44:06.241Z,99618.41
2022-09-30T06:45:05.590Z,99615.70
2022-09-30T06:46:16.566Z,99611.94
2022-09-30T06:47:24.679Z,99614.23
2022-09-30T06:48:36.593Z,99610.09
2022-09-30T06:49:47.128Z,99607.16
2022-09-30T06:50:45.439Z,99611.36
2022-09-30T06:51:47.466Z,99611.17
2022-09-30T06:52:54.514Z,99617.42
2022-09-30T06:54:02.560Z,99611.58
2022-09-30T06:55:09.587Z,99611.58
2022-09-30T06:56:17.879Z,99626.61
2022-09-30T06:57:36.758Z,99622.02
2022-09-30T06:58:36.173Z,99624.31
2022-09-30T06:59:41.576Z,99625.17
2022-09-30T07:00:51.554Z,99623.28
2022-09-30T07:01:57.285Z,99627.02
2022-09-30T07:03:04.873Z,99628.71
2022-09-30T07:04:16.443Z,99628.71
2022-09-30T07:05:28.204Z,99636.63
2022-09-30T07:06:32.386Z,99633.72
2022-09-30T07:07:39.162Z,99632.66
2022-09-30T07:08:48.407Z,99632.66
2022-09-30T07:09:49.338Z,99638.09
2022-09-30T07:10:55.219Z,99640.61
2022-09-30T07:12:04.346Z,99640.61
2022-09-30T07:13:17.532Z,99637.67
2022-09-30T07:14:28.169Z,99639.55
2022-09-30T07:30:08.699Z,99662.62
2022-09-30T07:31:30.781Z,99660.55
2022-09-30T07:32:12.882Z,99660.17
2022-09-30T07:33:19.308Z,99660.17
2022-09-30T07:34:25.759Z,99662.70
2022-09-30T07:35:29.730Z,99662.70
2022-09-30T09:28:53.116Z,99732.13
2022-09-30T09:29:16.404Z,99732.97
2022-09-30T09:30:25.669Z,99732.97
2022-09-30T09:31:29.728Z,99738.17
2022-09-30T09:32:34.018Z,99738.17
2022-09-30T09:33:46.993Z,99734.20
2022-09-30T09:34:56.187Z,99736.06
2022-09-30T09:36:05.859Z,99737.93
2022-09-30T09:37:21.521Z,99736.67
2022-09-30T09:38:34.209Z,99738.96
2022-09-30T09:39:43.526Z,99740.22
2022-09-30T09:40:56.330Z,99740.22
2022-09-30T09:42:33.362Z,99737.50
2022-09-30T09:43:59.774Z,99739.39
2022-09-30T09:45:23.092Z,99736.24
2022-09-30T09:46:53.900Z,99741.87
2022-09-30T09:47:54.119Z,99741.87
2022-09-30T09:49:23.943Z,99741.65
2022-09-30T09:50:31.959Z,99738.33
2022-09-30T09:51:38.922Z,99745.42
2022-09-30T09:52:51.229Z,99744.59
2022-09-30T09:53:59.800Z,99740.63
2022-09-30T09:55:07.255Z,99745.45
2022-09-30T09:56:17.465Z,99737.50
2022-09-30T09:57:23.396Z,99736.67
2022-09-30T09:58:27.841Z,99741.87
2022-09-30T09:59:31.808Z,99738.77
2022-09-30T11:38:56.690Z,99788.44
2022-09-30T11:40:12.419Z,99784.82
2022-09-30T11:41:42.454Z,99785.77
2022-09-30T11:42:52.292Z,99785.77
2022-09-30T11:44:10.700Z,99790.28
2022-09-30T11:45:23.759Z,99785.20
2022-09-30T11:46:48.555Z,99790.82
2022-09-30T11:48:00.098Z,99788.47
2022-09-30T11:49:12.983Z,99784.45
2022-09-30T11:50:22.771Z,99784.45
2022-09-30T11:51:50.493Z,99790.69
2022-09-30T11:53:12.061Z,99790.69
2022-09-30T11:54:29.617Z,99793.58
2022-09-30T11:55:56.060Z,99791.44
2022-09-30T11:57:17.647Z,99800.23
2022-09-30T11:58:41.145Z,99800.23
2022-09-30T11:59:35.152Z,99803.16
2022-09-30T12:00:45.545Z,99796.41
2022-09-30T12:02:03.772Z,99796.41
2022-09-30T13:05:55.326Z,99815.35
2022-09-30T13:09:20.833Z,99807.19
2022-09-30T13:10:30.982Z,99812.78
2022-09-30T13:11:59.827Z,99822.87
2022-09-30T13:13:15.503Z,99822.87
2022-09-30T13:14:27.027Z,99815.72
2022-09-30T13:15:36.548Z,99822.04
2022-09-30T13:17:01.704Z,99822.04
2022-09-30T13:18:24.884Z,99815.72
2022-09-30T13:19:47.792Z,99819.52
2022-09-30T13:21:06.267Z,99814.52
2022-09-30T13:22:22.036Z,99818.13
2022-09-30T13:23:46.624Z,99822.97
2022-09-30T13:25:01.115Z,99822.97
2022-09-30T13:32:20.351Z,99827.88
2022-09-30T14:54:03.213Z,99841.78
2022-09-30T15:13:13.818Z,99864.00
2022-09-30T15:14:26.841Z,99864.00
2022-09-30T15:15:41.521Z,99863.39
2022-09-30T15:16:52.625Z,99861.70
2022-09-30T15:17:59.816Z,99868.20
2022-09-30T15:19:10.287Z,99868.20
2022-09-30T15:20:35.560Z,99875.52
2022-09-30T15:21:43.446Z,99881.38
2022-09-30T15:22:50.234Z,99872.59
2022-09-30T15:49:32.929Z,99886.66
2022-09-30T15:50:48.162Z,99886.66
2022-09-30T15:51:59.835Z,99879.56
2022-09-30T16:02:44.900Z,99876.56
2022-09-30T16:03:30.959Z,99883.02
2022-09-30T16:04:39.124Z,99883.02
2022-09-30T17:38:23.645Z,99920.39
2022-09-30T17:40:27.442Z,99921.44
2022-09-30T17:41:33.931Z,99928.52
2022-09-30T17:42:42.851Z,99933.77
2022-09-30T17:43:58.912Z,99936.26
2022-09-30T17:46:28.597Z,99943.77
2022-09-30T17:49:12.110Z,99943.91
2022-09-30T18:04:21.884Z,99943.70
2022-09-30T18:04:59.475Z,99945.59
2022-09-30T20:41:05.715Z,99957.38
2022-09-30T20:42:08.963Z,99954.84
2022-09-30T21:57:16.049Z,99939.67
2022-09-30T22:10:24.170Z,99921.25
2022-09-30T22:11:38.430Z,99928.71
2022-09-30T22:18:50.909Z,99917.70
2022-09-30T22:21:36.502Z,99915.00
2022-09-30T22:22:40.327Z,99919.38
2022-09-30T22:23:49.121Z,99919.38
2022-09-30T22:24:57.765Z,99915.00
2022-09-30T22:26:13.210Z,99919.38
2022-09-30T22:28:27.525Z,99919.38
2022-09-30T22:29:37.209Z,99931.03
2022-09-30T22:30:44.764Z,99930.20
2022-09-30T22:31:58.436Z,99924.78
2022-09-30T22:33:02.812Z,99928.33
2022-09-30T22:34:09.397Z,99921.03
2022-09-30T22:35:37.367Z,99921.70
2022-09-30T22:36:38.683Z,99921.70
2022-09-30T22:37:32.344Z,99915.45
2022-09-30T22:38:38.746Z,99915.45
2022-09-30T22:39:44.329Z,99909.83
2022-09-30T22:40:50.586Z,99909.83
2022-09-30T22:41:57.527Z,99906.11
2022-09-30T22:43:01.761Z,99906.11
2022-09-30T22:44:07.233Z,99906.11
2022-09-30T22:45:44.154Z,99907.77
2022-09-30T22:46:39.434Z,99914.02
2022-09-30T22:47:36.661Z,99918.59
2022-09-30T22:50:10.381Z,99924.02
2022-09-30T23:54:36.403Z,99924.40
2022-09-30T23:56:17.221Z,99922.65
2022-09-30T23:57:25.811Z,99912.48
